Time;durP1;ratioP1;P1;durP2;ratioP2;P2;SDS_P1;SDS_P2;PMS_P1;PMS_P2;Temp;Humidity;BMP_temperature;BMP_pressure;BME280_temperature;BME280_humidity;BME280_pressure;Samples;Min_cycle;Max_cycle;Signal;HPM_P1;HPM_P2
2021/12/08 00:06:31;;;;;;;0.20;0.20;;;14.90;99.90;;;;;;20656378;28;20278;-73
2021/12/08 00:16:35;;;;;;;0.20;0.10;;;15.00;99.90;;;;;;20574291;28;20336;-74
2021/12/08 00:26:40;;;;;;;0.20;0.10;;;14.90;99.90;;;;;;20575101;28;20263;-73
2021/12/08 00:36:47;;;;;;;0.20;0.07;;;15.00;99.90;;;;;;20614532;28;20778;-74
2021/12/08 00:46:57;;;;;;;0.20;0.10;;;15.10;99.90;;;;;;20654471;28;20219;-75
2021/12/08 00:57:01;;;;;;;0.20;0.10;;;14.90;99.90;;;;;;20619864;28;20797;-75
2021/12/08 01:07:09;;;;;;;0.20;0.10;;;14.50;99.90;;;;;;20623463;23;20228;-72
2021/12/08 01:17:17;;;;;;;0.20;0.10;;;14.10;99.90;;;;;;20564986;28;20255;-73
2021/12/08 01:27:22;;;;;;;0.20;0.10;;;14.10;99.90;;;;;;20604320;28;20215;-72
2021/12/08 01:37:29;;;;;;;0.20;0.00;;;13.80;99.90;;;;;;20602315;28;20286;-73
2021/12/08 01:47:34;;;;;;;0.20;0.00;;;13.40;99.90;;;;;;20571250;28;20279;-72
2021/12/08 01:57:38;;;;;;;0.20;0.10;;;13.00;99.90;;;;;;20570059;28;20327;-73
2021/12/08 02:07:43;;;;;;;0.20;0.10;;;12.80;99.90;;;;;;20429278;23;20252;-75
2021/12/08 02:17:48;;;;;;;0.20;0.10;;;12.60;99.90;;;;;;20395206;29;20321;-75
2021/12/08 02:27:56;;;;;;;0.20;0.10;;;11.90;99.90;;;;;;20424058;29;20202;-73
2021/12/08 02:48:22;;;;;;;0.20;0.10;;;11.20;99.90;;;;;;20426064;29;20550;-74
2021/12/08 02:58:26;;;;;;;0.20;0.00;;;11.40;99.90;;;;;;20408514;29;20305;-76
2021/12/08 03:08:31;;;;;;;0.20;0.10;;;12.50;99.90;;;;;;20425719;29;20240;-76
2021/12/08 03:18:36;;;;;;;0.20;0.10;;;12.40;99.90;;;;;;20424000;29;20717;-76
2021/12/08 03:28:42;;;;;;;0.20;0.10;;;11.70;99.90;;;;;;20422867;29;20656;-75
2021/12/08 03:38:46;;;;;;;0.20;0.10;;;11.90;99.90;;;;;;20420278;29;20221;-75
2021/12/08 03:48:57;;;;;;;0.20;0.10;;;12.20;99.90;;;;;;20405091;29;20236;-75
2021/12/08 03:59:05;;;;;;;0.20;0.10;;;12.40;99.90;;;;;;20421469;29;20316;-73
2021/12/08 04:09:18;;;;;;;0.20;0.00;;;13.50;99.90;;;;;;20419248;29;20328;-75
2021/12/08 04:19:22;;;;;;;0.20;0.10;;;13.80;99.90;;;;;;20419511;29;20332;-75
2021/12/08 04:29:30;;;;;;;0.20;0.10;;;13.90;99.90;;;;;;20417409;29;20201;-76
2021/12/08 04:39:46;;;;;;;0.20;0.10;;;14.00;99.90;;;;;;20414151;29;20232;-73
2021/12/08 05:01:08;;;;;;;0.20;0.10;;;13.60;99.90;;;;;;20416915;29;20472;-76
2021/12/08 05:11:17;;;;;;;0.20;0.10;;;13.40;99.90;;;;;;20414610;29;20224;-75
2021/12/08 05:21:30;;;;;;;0.20;0.10;;;13.30;99.90;;;;;;20396424;29;20300;-76
2021/12/08 05:31:35;;;;;;;0.20;0.10;;;13.00;99.90;;;;;;20412343;29;20214;-73
2021/12/08 05:41:42;;;;;;;0.20;0.10;;;12.80;99.90;;;;;;20414870;29;20229;-74
2021/12/08 05:51:50;;;;;;;0.20;0.10;;;12.90;99.90;;;;;;20414384;29;20734;-74
2021/12/08 06:01:57;;;;;;;0.20;0.10;;;12.90;99.90;;;;;;20408621;29;20237;-74
2021/12/08 06:12:04;;;;;;;0.20;0.00;;;12.70;99.90;;;;;;20429181;29;20261;-76
2021/12/08 06:22:12;;;;;;;0.20;0.10;;;12.50;99.90;;;;;;20428991;29;20228;-75
2021/12/08 06:32:18;;;;;;;0.20;0.10;;;12.30;99.90;;;;;;20427882;29;20295;-74
2021/12/08 06:42:26;;;;;;;0.20;0.03;;;12.70;99.90;;;;;;20422359;29;20228;-77
2021/12/08 06:52:36;;;;;;;0.20;0.10;;;12.90;99.90;;;;;;20423991;29;20197;-76
2021/12/08 07:03:01;;;;;;;0.20;0.10;;;12.60;99.90;;;;;;20425137;29;20320;-73
2021/12/08 07:13:09;;;;;;;0.20;0.10;;;12.60;99.90;;;;;;20421266;29;20213;-74
2021/12/08 07:23:16;;;;;;;0.20;0.10;;;12.90;99.90;;;;;;20422534;29;20722;-71
2021/12/08 07:33:21;;;;;;;0.20;0.00;;;13.10;99.90;;;;;;20421527;29;20204;-71
2021/12/08 07:43:26;;;;;;;0.20;0.10;;;13.10;99.90;;;;;;20421800;29;20233;-72
2021/12/08 07:53:31;;;;;;;0.20;0.10;;;13.20;99.90;;;;;;20421492;29;20261;-72
2021/12/08 08:03:36;;;;;;;0.20;0.10;;;13.00;99.90;;;;;;20402312;29;20631;-73
2021/12/08 08:13:43;;;;;;;0.20;0.10;;;13.10;99.90;;;;;;20419062;29;20205;-72
2021/12/08 08:23:47;;;;;;;0.20;0.20;;;13.10;99.90;;;;;;20417943;29;20248;-72
2021/12/08 08:33:53;;;;;;;0.20;0.10;;;13.00;99.90;;;;;;20418222;29;20542;-74
2021/12/08 08:43:59;;;;;;;0.20;0.10;;;13.00;99.90;;;;;;20416469;29;20237;-78
2021/12/08 08:54:08;;;;;;;3.13;2.93;;;13.10;99.90;;;;;;20416778;29;20201;-76
2021/12/08 09:04:16;;;;;;;0.20;0.10;;;13.00;99.90;;;;;;20415205;29;20236;-75
2021/12/08 09:14:25;;;;;;;0.20;0.10;;;13.10;99.90;;;;;;20398948;29;20209;-72
2021/12/08 09:24:36;;;;;;;0.20;0.10;;;13.00;99.90;;;;;;20414722;29;20221;-74
2021/12/08 09:34:45;;;;;;;0.20;0.10;;;13.00;99.90;;;;;;20422907;29;20236;-71
2021/12/08 09:44:53;;;;;;;0.20;0.10;;;13.20;99.90;;;;;;20428822;29;20267;-75
2021/12/08 09:55:00;;;;;;;0.20;0.10;;;13.30;99.90;;;;;;20444017;29;20209;-72
2021/12/08 10:05:08;;;;;;;0.20;0.10;;;13.50;99.90;;;;;;20425479;29;20237;-73
2021/12/08 10:15:18;;;;;;;0.20;0.10;;;13.60;99.90;;;;;;20426485;29;20193;-71
2021/12/08 10:25:24;;;;;;;0.20;0.10;;;13.70;99.90;;;;;;20425309;29;20221;-73
2021/12/08 10:35:49;;;;;;;0.20;0.10;;;14.00;99.90;;;;;;20425156;29;20280;-71
2021/12/08 10:46:06;;;;;;;0.20;0.10;;;14.20;99.90;;;;;;20407372;29;20320;-72
2021/12/08 10:56:13;;;;;;;0.20;0.10;;;14.70;99.90;;;;;;20425238;29;20197;-73
2021/12/08 11:06:20;;;;;;;0.20;0.10;;;14.30;99.90;;;;;;20422195;29;20276;-72
2021/12/08 11:16:26;;;;;;;0.20;0.10;;;14.60;99.90;;;;;;20422071;29;20197;-71
2021/12/08 11:26:33;;;;;;;0.20;0.00;;;14.90;99.90;;;;;;20421356;29;20205;-71
2021/12/08 11:36:40;;;;;;;0.20;0.10;;;14.60;99.90;;;;;;20421363;29;20213;-73
2021/12/08 11:46:47;;;;;;;0.20;0.00;;;14.80;99.90;;;;;;20420549;29;20212;-74
2021/12/08 11:56:52;;;;;;;0.20;0.10;;;15.60;99.90;;;;;;20419030;29;20216;-72
2021/12/08 12:06:56;;;;;;;0.20;0.10;;;15.50;99.90;;;;;;20419044;29;20703;-71
2021/12/08 12:17:01;;;;;;;0.20;0.10;;;15.30;99.90;;;;;;20417913;29;20228;-71
2021/12/08 12:27:22;;;;;;;0.20;0.10;;;15.80;99.90;;;;;;20417853;29;20663;-74
2021/12/08 12:37:35;;;;;;;0.20;0.10;;;16.00;99.90;;;;;;20417647;29;20605;-71
2021/12/08 12:47:39;;;;;;;0.20;0.10;;;16.30;99.90;;;;;;20416538;29;20224;-73
2021/12/08 12:58:16;;;;;;;0.20;0.10;;;16.70;99.90;;;;;;20414967;29;20280;-74
2021/12/08 13:08:31;;;;;;;0.20;0.00;;;15.90;99.90;;;;;;20409956;29;20236;-72
2021/12/08 13:18:54;;;;;;;0.30;0.10;;;15.90;99.90;;;;;;20413240;29;20228;-70
2021/12/08 13:29:18;;;;;;;0.20;0.10;;;15.40;99.90;;;;;;20413494;29;20205;-74
2021/12/08 13:39:27;;;;;;;0.20;0.10;;;15.70;99.90;;;;;;20414854;29;20585;-70
2021/12/08 13:49:52;;;;;;;0.20;0.10;;;15.70;99.90;;;;;;20397113;29;20202;-69
2021/12/08 13:59:59;;;;;;;0.20;0.10;;;15.80;99.90;;;;;;20412923;29;20241;-71
2021/12/08 14:10:06;;;;;;;0.20;0.00;;;15.70;99.90;;;;;;20413483;29;20208;-70
2021/12/08 14:30:46;;;;;;;0.20;0.10;;;15.90;99.90;;;;;;21141025;27;20545;-72
2021/12/08 14:40:50;;;;;;;0.20;0.10;;;15.30;99.90;;;;;;21140254;28;20223;-72
2021/12/08 14:50:55;;;;;;;0.20;0.10;;;14.20;99.90;;;;;;21168740;27;20199;-72
2021/12/08 15:00:58;;;;;;;0.20;0.10;;;14.40;99.90;;;;;;21094593;27;20218;-75
2021/12/08 15:11:04;;;;;;;0.20;0.10;;;15.10;99.90;;;;;;21051632;28;20200;-71
2021/12/08 15:21:11;;;;;;;0.20;0.10;;;14.30;99.90;;;;;;21047502;28;20228;-76
2021/12/08 15:31:16;;;;;;;0.20;0.10;;;14.80;99.90;;;;;;21082437;28;20205;-71
2021/12/08 15:41:23;;;;;;;0.20;0.10;;;14.60;99.90;;;;;;21073875;28;20733;-72
2021/12/08 15:51:34;;;;;;;0.20;0.10;;;13.20;99.90;;;;;;21070193;28;20870;-73
2021/12/08 16:01:43;;;;;;;0.20;0.10;;;12.80;99.90;;;;;;21071638;28;20212;-71
2021/12/08 16:11:50;;;;;;;0.20;0.10;;;12.60;99.90;;;;;;21059368;28;20280;-72
2021/12/08 16:21:55;;;;;;;0.20;0.10;;;12.40;99.90;;;;;;21048067;28;20255;-75
2021/12/08 16:32:04;;;;;;;0.20;0.10;;;12.20;99.90;;;;;;21016891;28;20284;-70
2021/12/08 16:52:30;;;;;;;0.20;0.10;;;12.10;99.90;;;;;;21044200;28;20196;-71
2021/12/08 17:02:34;;;;;;;0.20;0.10;;;12.00;99.90;;;;;;21054572;28;20716;-74
2021/12/08 17:12:39;;;;;;;0.20;0.10;;;11.90;99.90;;;;;;21061842;28;20196;-72
2021/12/08 17:22:43;;;;;;;0.20;0.10;;;11.80;99.90;;;;;;21003425;28;20290;-75
2021/12/08 17:32:48;;;;;;;0.20;0.10;;;11.70;99.90;;;;;;20995253;28;20197;-73
2021/12/08 17:42:52;;;;;;;0.20;0.10;;;11.60;99.90;;;;;;21051746;28;20250;-72
2021/12/08 17:52:58;;;;;;;0.70;0.70;;;11.40;99.90;;;;;;21061172;28;20623;-73
2021/12/08 18:03:02;;;;;;;0.20;0.10;;;11.30;99.90;;;;;;21073675;28;20280;-71
2021/12/08 18:13:08;;;;;;;0.20;0.10;;;11.10;99.90;;;;;;21105824;28;20262;-72
2021/12/08 18:23:12;;;;;;;0.20;0.10;;;10.80;99.90;;;;;;21117660;28;20243;-73
2021/12/08 18:33:20;;;;;;;0.20;0.10;;;10.70;99.90;;;;;;21147144;28;20216;-72
2021/12/08 18:43:25;;;;;;;0.20;0.10;;;10.60;99.90;;;;;;21145398;28;20292;-71
2021/12/08 18:53:30;;;;;;;0.20;0.10;;;10.50;99.90;;;;;;21086426;28;20191;-68
2021/12/08 19:03:34;;;;;;;0.20;0.10;;;10.20;99.90;;;;;;21058088;28;20697;-69
2021/12/08 19:13:39;;;;;;;0.20;0.10;;;10.40;99.90;;;;;;21066742;28;20529;-71
2021/12/08 19:23:43;;;;;;;0.20;0.10;;;10.40;99.90;;;;;;21069238;28;20227;-71
2021/12/08 19:33:55;;;;;;;0.20;0.10;;;10.20;99.90;;;;;;21073800;28;20586;-73
2021/12/08 19:44:06;;;;;;;0.20;0.20;;;10.20;99.90;;;;;;21073729;28;20708;-72
2021/12/08 19:54:15;;;;;;;0.20;0.10;;;10.20;99.90;;;;;;21073455;28;20200;-72
2021/12/08 20:04:19;;;;;;;0.20;0.10;;;10.10;99.90;;;;;;21071708;28;20231;-71
2021/12/08 20:14:24;;;;;;;0.20;0.10;;;10.00;99.90;;;;;;21072154;28;20225;-71
2021/12/08 20:24:27;;;;;;;0.20;0.10;;;10.00;99.90;;;;;;21010712;28;20244;-72
2021/12/08 20:34:35;;;;;;;0.20;0.10;;;9.90;99.90;;;;;;21070580;28;20671;-71
2021/12/08 20:44:41;;;;;;;0.20;0.10;;;9.80;99.90;;;;;;21068944;28;20228;-73
2021/12/08 20:54:46;;;;;;;0.20;0.10;;;9.70;99.90;;;;;;21066419;28;20290;-72
2021/12/08 21:04:51;;;;;;;0.20;0.10;;;9.70;99.90;;;;;;21066468;28;20219;-71
2021/12/08 21:14:57;;;;;;;0.20;0.10;;;9.70;99.90;;;;;;21050595;28;20228;-73
2021/12/08 21:25:00;;;;;;;1.07;0.50;;;9.50;99.90;;;;;;21083620;28;20647;-72
2021/12/08 21:35:20;;;;;;;3.73;3.20;;;9.40;99.90;;;;;;21112681;28;20202;-71
2021/12/08 21:45:24;;;;;;;0.20;0.10;;;9.30;99.90;;;;;;21066230;28;20224;-71
2021/12/08 21:55:29;;;;;;;0.20;0.10;;;9.20;99.90;;;;;;21016439;28;20207;-72
2021/12/08 22:05:41;;;;;;;0.20;0.10;;;9.20;99.90;;;;;;21149367;28;20221;-74
2021/12/08 22:15:50;;;;;;;0.20;0.10;;;9.10;99.90;;;;;;21028793;28;20669;-75
2021/12/08 22:25:53;;;;;;;0.20;0.10;;;8.90;99.90;;;;;;21035111;28;20282;-73
2021/12/08 22:36:00;;;;;;;0.20;0.07;;;8.80;99.90;;;;;;20984621;28;20273;-73
2021/12/08 22:46:05;;;;;;;0.20;0.10;;;8.70;99.90;;;;;;21058736;28;20235;-71
2021/12/08 22:56:10;;;;;;;0.20;0.10;;;8.50;99.90;;;;;;21071581;28;20200;-71
2021/12/08 23:06:15;;;;;;;0.20;0.07;;;8.30;99.90;;;;;;21028060;28;20507;-70
2021/12/08 23:16:21;;;;;;;0.20;0.10;;;7.90;99.90;;;;;;21066784;28;20192;-72
2021/12/08 23:26:27;;;;;;;0.20;0.00;;;7.70;99.90;;;;;;21065658;28;20243;-72
2021/12/08 23:36:43;;;;;;;0.20;0.00;;;7.60;99.90;;;;;;21065686;28;20203;-71
2021/12/08 23:46:47;;;;;;;0.20;0.00;;;7.40;99.90;;;;;;21083463;28;20585;-73
2021/12/08 23:56:53;;;;;;;0.20;0.10;;;7.20;99.90;;;;;;20992316;28;20199;-74
